aviador You're here:

LFQQ Decoded Metar

LILLE in FRANCE
Report Time2018-07-23 07:30:00
UTC Time2018-07-23 07:50:00
Flight Rules vfr VFR
Wind230° at 05 kt
W.Decomp.*RWY 26: 4.3 kt HW 2.5 kt LCW
RWY 20: 4.3 kt HW 2.5 kt RCW
W.Rank230° ranks 7
Current wind is below 230° avg. (8.9)
Visibility9999 m
Phenomena:N/A
Clouds:N/A
Expected CloudBase > 3,600 ft AGL from Temp-Dew spread
CeilingNone
Temp23°C (ISA +8)
Dew Point14°C (57% RH)
AAT22.5°C
QNH1018 hPa
Density Alt1,188 ft
Elevation171 ft
Report Wrong Elevation
Raw Report
LFQQ 230730Z AUTO 23005KT 180V270 CAVOK 23/14 Q1018 NOSIG=

Extra information for LFQQ:More info

Metar Taf Metar & Taf Last 4 Metars F.Rules Stats Wind Profile Meteogram Temp Stats Airport Information Weather charts Add Link Nearby VenuesMetar ALERT Operation Metar Decoded Social comments